createdAt,value
2018-11-03T00:00:07.155Z,8.83
2018-11-03T00:02:37.962Z,11.15
2018-11-03T00:05:07.871Z,11.15
2018-11-03T00:07:41.085Z,8.90
2018-11-03T00:10:11.902Z,7.80
2018-11-03T00:12:43.790Z,9.80
2018-11-03T00:15:14.590Z,9.20
2018-11-03T00:17:44.386Z,8.58
2018-11-03T00:20:15.234Z,9.50
2018-11-03T00:22:45.041Z,8.10
2018-11-03T00:25:14.869Z,8.73
2018-11-03T00:27:49.259Z,10.45
2018-11-03T00:30:22.459Z,10.58
2018-11-03T00:32:53.254Z,10.03
2018-11-03T00:35:26.286Z,9.50
2018-11-03T00:37:56.267Z,9.70
2018-11-03T00:40:28.387Z,9.45
2018-11-03T00:42:58.299Z,12.35
2018-11-03T00:45:28.179Z,9.95
2018-11-03T00:48:01.089Z,9.18
2018-11-03T00:50:32.006Z,9.88
2018-11-03T00:53:07.027Z,9.43
2018-11-03T00:55:37.902Z,12.65
2018-11-03T00:58:07.803Z,9.25
2018-11-03T01:00:37.762Z,11.97
2018-11-03T01:03:09.594Z,8.68
2018-11-03T01:05:41.431Z,9.13
2018-11-03T01:08:12.311Z,11.73
2018-11-03T01:10:42.175Z,8.98
2018-11-03T01:13:18.159Z,9.20
2018-11-03T01:15:48.887Z,8.90
2018-11-03T01:18:19.742Z,9.53
2018-11-03T01:20:50.502Z,8.73
2018-11-03T01:23:20.319Z,7.60
2018-11-03T01:25:51.179Z,8.88
2018-11-03T01:28:22.026Z,9.20
2018-11-03T01:30:52.847Z,9.30
2018-11-03T01:33:29.550Z,8.60
2018-11-03T01:36:01.503Z,7.95
2018-11-03T01:38:35.925Z,11.18
2018-11-03T01:41:06.730Z,9.80
2018-11-03T01:43:36.578Z,10.53
2018-11-03T01:46:07.438Z,9.35
2018-11-03T01:48:40.525Z,9.35
2018-11-03T01:51:14.394Z,10.18
2018-11-03T01:53:44.212Z,9.35
2018-11-03T01:56:14.007Z,10.03
2018-11-03T01:58:43.806Z,9.65
2018-11-03T02:01:13.639Z,9.68
2018-11-03T02:03:43.552Z,9.50
2018-11-03T02:06:13.363Z,8.90
2018-11-03T02:08:44.223Z,12.55
2018-11-03T02:11:14.090Z,10.63
2018-11-03T02:13:43.927Z,8.50
2018-11-03T02:16:13.754Z,11.28
2018-11-03T02:18:44.591Z,9.63
2018-11-03T02:21:14.491Z,10.30
2018-11-03T02:23:44.315Z,8.53
2018-11-03T02:26:14.843Z,8.85
2018-11-03T02:28:45.675Z,9.13
2018-11-03T02:31:15.554Z,8.90
2018-11-03T02:33:49.235Z,8.80
2018-11-03T02:36:20.139Z,11.30
2018-11-03T02:38:50.029Z,8.98
2018-11-03T02:41:19.843Z,10.13
2018-11-03T02:43:49.675Z,10.45
2018-11-03T02:46:19.585Z,9.18
2018-11-03T02:48:50.374Z,9.93
2018-11-03T02:51:20.198Z,10.03
2018-11-03T02:53:50.046Z,9.73
2018-11-03T02:56:19.913Z,9.40
2018-11-03T02:58:49.769Z,8.90
2018-11-03T03:01:19.592Z,8.88
2018-11-03T03:03:49.724Z,9.95
2018-11-03T03:06:19.567Z,9.68
2018-11-03T03:08:49.426Z,10.65
2018-11-03T03:11:19.355Z,10.03
2018-11-03T03:13:49.263Z,10.23
2018-11-03T03:16:19.171Z,11.70
2018-11-03T03:18:49.070Z,8.90
2018-11-03T03:21:19.907Z,9.35
2018-11-03T03:23:51.751Z,10.23
2018-11-03T03:26:23.144Z,7.90
2018-11-03T03:28:54.065Z,8.38
2018-11-03T03:31:24.155Z,7.85
2018-11-03T03:33:56.063Z,10.30
2018-11-03T03:36:27.911Z,7.37
2018-11-03T03:39:09.326Z,8.85
2018-11-03T03:41:40.091Z,11.78
2018-11-03T03:44:10.919Z,10.85
2018-11-03T03:46:46.511Z,7.50
2018-11-03T03:49:17.371Z,9.08
2018-11-03T03:51:51.374Z,8.90
2018-11-03T03:54:21.332Z,11.22
2018-11-03T03:56:52.098Z,8.53
2018-11-03T03:59:22.007Z,7.95
2018-11-03T04:01:52.786Z,8.45
2018-11-03T04:04:24.555Z,8.45
2018-11-03T04:06:57.694Z,8.80
2018-11-03T04:09:28.507Z,8.38
2018-11-03T04:12:08.643Z,9.35
2018-11-03T04:14:38.471Z,8.28
2018-11-03T04:17:08.316Z,8.23
2018-11-03T04:19:38.219Z,9.10
2018-11-03T04:22:08.091Z,8.48
2018-11-03T04:24:38.920Z,9.40
2018-11-03T04:27:10.779Z,9.20
2018-11-03T04:29:44.922Z,9.60
2018-11-03T04:32:16.823Z,8.35
2018-11-03T04:34:48.603Z,8.13
2018-11-03T04:37:19.530Z,8.08
2018-11-03T04:39:50.855Z,7.53
2018-11-03T04:42:30.499Z,10.58
2018-11-03T04:45:05.115Z,7.78
2018-11-03T04:47:35.953Z,14.18
2018-11-03T04:50:06.536Z,8.38
2018-11-03T04:52:36.492Z,8.85
2018-11-03T04:55:07.104Z,8.70
2018-11-03T04:57:37.235Z,10.03
2018-11-03T05:00:08.951Z,9.25
2018-11-03T05:02:38.808Z,7.75
2018-11-03T05:05:09.679Z,8.98
2018-11-03T05:07:40.575Z,8.95
2018-11-03T05:10:12.479Z,9.85
2018-11-03T05:12:43.267Z,7.30
2018-11-03T05:15:13.187Z,8.45
2018-11-03T05:17:43.067Z,8.25
2018-11-03T05:20:17.533Z,10.55
2018-11-03T05:22:47.327Z,8.03
2018-11-03T05:25:17.199Z,8.75
2018-11-03T05:27:48.387Z,8.93
2018-11-03T05:30:18.246Z,10.05
2018-11-03T05:32:52.011Z,8.83
2018-11-03T05:35:23.835Z,8.98
2018-11-03T05:37:54.695Z,8.88
2018-11-03T05:40:24.652Z,15.03
2018-11-03T05:42:54.523Z,10.75
2018-11-03T05:45:27.511Z,8.83
2018-11-03T05:47:58.435Z,8.15
2018-11-03T05:50:28.403Z,10.63
2018-11-03T05:52:58.255Z,9.68
2018-11-03T05:55:35.871Z,8.90
2018-11-03T05:58:06.203Z,11.73
2018-11-03T06:00:37.023Z,9.08
2018-11-03T06:03:07.867Z,9.40
2018-11-03T06:05:41.504Z,8.28
2018-11-03T06:08:14.511Z,10.63
2018-11-03T06:10:44.345Z,8.75
2018-11-03T06:13:16.200Z,10.38
2018-11-03T06:15:47.080Z,10.10
2018-11-03T06:18:23.432Z,8.78
2018-11-03T06:20:53.332Z,8.65
2018-11-03T06:23:23.151Z,9.10
2018-11-03T06:25:53.055Z,9.00
2018-11-03T06:28:29.024Z,12.15
2018-11-03T06:31:06.859Z,8.23
2018-11-03T06:33:36.748Z,10.23
2018-11-03T06:36:06.682Z,9.85
2018-11-03T06:38:37.468Z,8.80
2018-11-03T06:41:07.399Z,8.78
2018-11-03T06:43:38.211Z,8.25
2018-11-03T06:46:08.068Z,12.45
2018-11-03T06:48:39.007Z,12.13
2018-11-03T06:51:08.911Z,8.55
2018-11-03T06:53:45.135Z,9.05
2018-11-03T06:56:16.995Z,8.70
2018-11-03T06:58:50.711Z,9.00
2018-11-03T07:01:20.635Z,9.50
2018-11-03T07:03:51.491Z,9.60
2018-11-03T07:06:22.431Z,9.05
2018-11-03T07:08:52.366Z,7.80
2018-11-03T07:11:27.130Z,8.00
2018-11-03T07:14:07.951Z,7.80
2018-11-03T07:16:37.843Z,8.18
2018-11-03T07:19:09.647Z,11.28
2018-11-03T07:21:41.615Z,8.20
2018-11-03T07:24:11.607Z,9.10
2018-11-03T07:26:44.635Z,9.35
2018-11-03T07:29:15.464Z,7.83
2018-11-03T07:31:45.303Z,8.98
2018-11-03T07:34:16.290Z,9.45
2018-11-03T07:36:55.395Z,10.30
2018-11-03T07:39:25.268Z,8.20
2018-11-03T07:41:58.847Z,8.58
2018-11-03T07:44:32.844Z,8.20
2018-11-03T07:47:02.703Z,7.62
2018-11-03T07:49:33.500Z,7.80
2018-11-03T07:52:07.091Z,7.57
2018-11-03T07:54:36.979Z,9.73
2018-11-03T07:57:07.674Z,7.30
2018-11-03T07:59:37.514Z,9.47
2018-11-03T08:02:08.555Z,7.37
2018-11-03T08:04:42.399Z,8.03
2018-11-03T08:07:12.283Z,7.23
2018-11-03T08:09:44.334Z,8.50
2018-11-03T08:12:15.314Z,8.50
2018-11-03T08:14:45.137Z,8.40
2018-11-03T08:17:15.035Z,7.90
2018-11-03T08:19:46.943Z,8.17
2018-11-03T08:22:16.858Z,8.40
2018-11-03T08:24:48.740Z,8.00
2018-11-03T08:27:19.571Z,7.80
2018-11-03T08:29:51.402Z,8.70
2018-11-03T08:32:21.311Z,8.40
2018-11-03T08:34:53.144Z,9.83
2018-11-03T08:37:25.039Z,7.93
2018-11-03T08:39:55.871Z,9.60
2018-11-03T08:42:25.814Z,11.03
2018-11-03T08:44:56.623Z,9.93
2018-11-03T08:47:27.491Z,11.50
2018-11-03T08:50:02.879Z,9.67
2018-11-03T08:52:37.043Z,10.07
2018-11-03T08:55:09.543Z,9.50
2018-11-03T08:57:43.251Z,12.83
2018-11-03T09:00:18.137Z,11.13
2018-11-03T09:02:57.363Z,13.13
2018-11-03T09:05:34.474Z,15.70
2018-11-03T09:08:04.311Z,10.00
2018-11-03T09:10:35.473Z,9.87
2018-11-03T09:13:07.247Z,10.40
2018-11-03T09:15:39.167Z,10.23
2018-11-03T09:18:13.095Z,10.70
2018-11-03T09:20:43.971Z,10.10
2018-11-03T09:23:16.951Z,11.30
2018-11-03T09:25:49.551Z,10.50
2018-11-03T09:28:23.659Z,8.20
2018-11-03T09:30:54.564Z,11.73
2018-11-03T09:33:25.319Z,8.87
2018-11-03T09:35:57.339Z,9.77
2018-11-03T09:38:31.009Z,11.20
2018-11-03T09:41:01.831Z,8.53
2018-11-03T09:43:33.597Z,11.63
2018-11-03T09:46:10.571Z,9.90
2018-11-03T09:48:43.731Z,9.67
2018-11-03T09:51:14.614Z,9.50
2018-11-03T09:53:45.398Z,10.80
2018-11-03T09:56:19.924Z,10.17
2018-11-03T09:58:50.788Z,10.33
2018-11-03T10:01:21.767Z,9.57
2018-11-03T10:03:54.468Z,9.77
2018-11-03T10:06:24.322Z,9.67
2018-11-03T10:08:54.131Z,9.73
2018-11-03T10:11:25.963Z,11.77
2018-11-03T10:13:56.059Z,10.57
2018-11-03T10:16:29.000Z,9.77
2018-11-03T10:18:58.879Z,10.20
2018-11-03T10:21:30.679Z,11.00
2018-11-03T10:24:00.539Z,10.93
2018-11-03T10:26:32.303Z,10.97
2018-11-03T10:29:03.334Z,14.73
2018-11-03T10:31:34.187Z,11.70
2018-11-03T10:34:08.994Z,11.77
2018-11-03T10:36:38.839Z,11.07
2018-11-03T10:39:13.592Z,11.27
2018-11-03T10:41:47.231Z,11.27
2018-11-03T10:44:21.139Z,11.33
2018-11-03T10:47:01.783Z,12.03
2018-11-03T10:49:32.631Z,14.30
2018-11-03T10:52:06.239Z,12.13
2018-11-03T10:54:37.051Z,11.83
2018-11-03T10:57:07.639Z,14.80
2018-11-03T10:59:37.751Z,12.33
2018-11-03T11:02:13.287Z,13.30
2018-11-03T11:04:48.435Z,10.87
2018-11-03T11:07:24.599Z,12.50
2018-11-03T11:10:11.307Z,13.20
2018-11-03T11:12:44.427Z,15.53
2018-11-03T11:15:32.747Z,12.77
2018-11-03T11:18:06.507Z,11.20
2018-11-03T11:20:37.395Z,22.03
2018-11-03T11:23:07.306Z,10.27
2018-11-03T11:25:40.308Z,11.30
2018-11-03T11:28:12.142Z,12.33
2018-11-03T11:30:44.148Z,11.70
2018-11-03T11:33:16.171Z,11.27
2018-11-03T11:35:50.739Z,11.53
2018-11-03T11:38:20.767Z,10.90
2018-11-03T11:40:53.892Z,13.00
2018-11-03T11:43:24.679Z,10.60
2018-11-03T11:45:55.588Z,11.60
2018-11-03T11:48:26.501Z,12.03
2018-11-03T11:51:00.215Z,11.10
2018-11-03T11:53:32.023Z,11.40
2018-11-03T11:56:07.066Z,11.40
2018-11-03T11:58:37.867Z,12.60
2018-11-03T12:01:09.767Z,10.90
2018-11-03T12:03:40.655Z,12.07
2018-11-03T12:06:13.825Z,11.80
2018-11-03T12:08:45.672Z,12.40
2018-11-03T12:11:17.663Z,12.80
2018-11-03T12:13:47.467Z,10.63
2018-11-03T12:16:18.556Z,11.13
2018-11-03T12:18:49.208Z,9.93
2018-11-03T12:21:19.279Z,10.50
2018-11-03T12:23:52.720Z,12.63
2018-11-03T12:26:34.755Z,9.87
2018-11-03T12:29:04.775Z,11.23
2018-11-03T12:31:36.619Z,11.53
2018-11-03T12:34:13.208Z,13.10
2018-11-03T12:36:45.619Z,11.80
2018-11-03T12:39:29.612Z,13.87
2018-11-03T12:41:59.523Z,10.90
2018-11-03T12:44:32.799Z,11.27
2018-11-03T12:47:02.764Z,11.33
2018-11-03T12:49:33.584Z,9.90
2018-11-03T12:52:03.713Z,11.93
2018-11-03T12:54:33.530Z,11.07
2018-11-03T12:57:08.928Z,10.40
2018-11-03T12:59:38.776Z,11.03
2018-11-03T13:02:11.872Z,10.90
2018-11-03T13:04:43.812Z,10.97
2018-11-03T13:07:18.093Z,9.97
2018-11-03T13:09:50.310Z,12.87
2018-11-03T13:12:23.447Z,11.37
2018-11-03T13:14:54.296Z,10.93
2018-11-03T13:17:26.116Z,10.57
2018-11-03T13:19:55.908Z,13.33
2018-11-03T13:22:25.724Z,9.33
2018-11-03T13:24:55.592Z,11.63
2018-11-03T13:27:25.499Z,10.47
2018-11-03T13:29:57.355Z,12.83
2018-11-03T13:32:27.257Z,12.97
2018-11-03T13:34:58.171Z,16.80
2018-11-03T13:37:28.036Z,15.10
2018-11-03T13:40:02.446Z,12.10
2018-11-03T13:42:32.465Z,17.00
2018-11-03T13:45:06.466Z,12.40
2018-11-03T13:47:39.134Z,14.93
2018-11-03T13:50:16.491Z,13.17
2018-11-03T13:52:50.747Z,13.00
2018-11-03T13:55:24.884Z,12.93
2018-11-03T13:58:01.773Z,12.33
2018-11-03T14:00:32.640Z,11.77
2018-11-03T14:03:07.537Z,13.03
2018-11-03T14:05:39.387Z,12.77
2018-11-03T14:08:10.203Z,18.37
2018-11-03T14:10:42.120Z,11.80
2018-11-03T14:13:12.004Z,12.67
2018-11-03T14:15:42.869Z,14.10
2018-11-03T14:18:12.677Z,13.33
2018-11-03T14:20:42.539Z,12.47
2018-11-03T14:23:12.478Z,11.17
2018-11-03T14:25:42.423Z,12.90
2018-11-03T14:30:33.532Z,18.57
2018-11-03T14:33:07.524Z,15.60
2018-11-03T14:35:40.508Z,12.60
2018-11-03T14:38:12.348Z,12.90
2018-11-03T14:40:42.243Z,13.20
2018-11-03T14:43:18.396Z,12.47
2018-11-03T14:46:05.504Z,12.23
2018-11-03T14:48:38.556Z,11.83
2018-11-03T14:51:10.534Z,13.50
2018-11-03T14:53:40.237Z,13.40
2018-11-03T14:56:14.939Z,14.00
2018-11-03T14:58:44.840Z,11.80
2018-11-03T15:01:15.672Z,11.73
2018-11-03T15:03:47.559Z,16.90
2018-11-03T15:06:18.379Z,14.87
2018-11-03T15:08:51.392Z,12.90
2018-11-03T15:11:22.255Z,12.90
2018-11-03T15:14:06.503Z,16.20
2018-11-03T15:16:38.707Z,13.03
2018-11-03T15:19:10.667Z,14.10
2018-11-03T15:21:42.535Z,15.07
2018-11-03T15:24:22.039Z,13.43
2018-11-03T15:27:04.513Z,14.83
2018-11-03T15:29:35.315Z,18.30
2018-11-03T15:32:07.139Z,16.00
2018-11-03T15:34:37.007Z,19.50
2018-11-03T15:37:10.812Z,16.27
2018-11-03T15:39:44.455Z,16.00
2018-11-03T15:42:16.536Z,15.47
2018-11-03T15:44:52.547Z,17.70
2018-11-03T15:47:25.895Z,13.33
2018-11-03T15:49:59.895Z,14.33
2018-11-03T15:52:30.924Z,16.30
2018-11-03T15:55:00.741Z,14.47
2018-11-03T15:57:30.572Z,17.60
2018-11-03T16:00:00.496Z,16.03
2018-11-03T16:02:31.347Z,13.00
2018-11-03T16:05:02.270Z,14.80
2018-11-03T16:07:32.163Z,16.43
2018-11-03T16:10:08.080Z,16.30
2018-11-03T16:12:45.351Z,17.67
2018-11-03T16:15:18.395Z,14.13
2018-11-03T16:17:48.172Z,15.50
2018-11-03T16:20:21.144Z,15.40
2018-11-03T16:22:52.128Z,14.93
2018-11-03T16:25:28.644Z,14.93
2018-11-03T16:28:00.395Z,17.00
2018-11-03T16:30:30.212Z,18.77
2018-11-03T16:32:59.995Z,19.40
2018-11-03T16:35:30.103Z,16.80
2018-11-03T16:37:59.908Z,17.43
2018-11-03T16:40:32.809Z,22.90
2018-11-03T16:43:03.657Z,20.43
2018-11-03T16:45:37.559Z,15.77
2018-11-03T16:48:07.456Z,18.83
2018-11-03T16:50:37.351Z,16.90
2018-11-03T16:53:08.228Z,15.30
2018-11-03T16:55:38.103Z,17.50
2018-11-03T16:58:09.968Z,17.63
2018-11-03T17:00:39.812Z,30.83
2018-11-03T17:03:09.572Z,24.30
2018-11-03T17:05:40.024Z,23.80
2018-11-03T17:08:10.842Z,39.47
2018-11-03T17:10:40.679Z,44.03
2018-11-03T17:13:12.648Z,36.73
2018-11-03T17:15:47.811Z,33.77
2018-11-03T17:18:19.668Z,30.33
2018-11-03T17:20:53.140Z,25.37
2018-11-03T17:23:26.940Z,21.23
2018-11-03T17:25:57.763Z,34.03
2018-11-03T17:28:28.559Z,20.20
2018-11-03T17:30:58.444Z,23.47
2018-11-03T17:33:28.252Z,25.53
2018-11-03T17:35:58.067Z,21.50
2018-11-03T17:38:31.028Z,20.20
2018-11-03T17:41:00.960Z,20.13
2018-11-03T17:43:35.499Z,22.57
2018-11-03T17:46:08.600Z,24.70
2018-11-03T17:48:38.411Z,23.80
2018-11-03T17:51:08.327Z,22.97
2018-11-03T17:53:38.203Z,21.50
2018-11-03T17:56:08.014Z,21.93
2018-11-03T17:58:38.784Z,27.93
2018-11-03T18:01:10.012Z,20.13
2018-11-03T18:03:39.661Z,20.80
2018-11-03T18:06:10.593Z,20.97
2018-11-03T18:08:40.465Z,20.00
2018-11-03T18:11:12.268Z,20.57
2018-11-03T18:13:44.195Z,23.77
2018-11-03T18:16:14.083Z,23.90
2018-11-03T18:18:44.919Z,21.90
2018-11-03T18:21:17.792Z,20.97
2018-11-03T18:24:00.625Z,22.17
2018-11-03T18:26:32.418Z,22.03
2018-11-03T18:29:02.135Z,24.10
2018-11-03T18:31:33.024Z,23.80
2018-11-03T18:34:03.884Z,23.37
2018-11-03T18:36:35.596Z,23.20
2018-11-03T18:39:08.536Z,23.57
2018-11-03T18:41:38.512Z,22.70
2018-11-03T18:44:11.512Z,25.50
2018-11-03T18:46:41.401Z,25.03
2018-11-03T18:49:11.140Z,22.53
2018-11-03T18:51:41.053Z,23.33
2018-11-03T18:54:11.972Z,23.83
2018-11-03T18:56:43.720Z,23.57
2018-11-03T18:59:13.656Z,23.80
2018-11-03T19:01:43.512Z,25.67
2018-11-03T19:04:13.300Z,26.80
2018-11-03T19:06:44.096Z,26.57
2018-11-03T19:09:14.935Z,26.47
2018-11-03T19:11:44.728Z,27.37
2018-11-03T19:14:14.552Z,26.03
2018-11-03T19:16:45.384Z,27.57
2018-11-03T19:19:15.324Z,28.80
2018-11-03T19:21:45.227Z,24.63
2018-11-03T19:24:20.912Z,25.67
2018-11-03T19:26:51.708Z,31.73
2018-11-03T19:29:21.641Z,27.83
2018-11-03T19:31:53.467Z,27.60
2018-11-03T19:34:26.556Z,28.80
2018-11-03T19:36:57.362Z,28.40
2018-11-03T19:39:27.448Z,25.40
2018-11-03T19:41:58.400Z,27.30
2018-11-03T19:44:29.347Z,29.77
2018-11-03T19:47:01.296Z,29.07
2018-11-03T19:49:31.140Z,27.80
2018-11-03T19:52:01.016Z,27.70
2018-11-03T19:54:35.615Z,30.25
2018-11-03T19:57:07.413Z,31.07
2018-11-03T19:59:41.264Z,29.32
2018-11-03T20:02:11.288Z,30.55
2018-11-03T20:04:42.160Z,26.77
2018-11-03T20:07:14.064Z,29.57
2018-11-03T20:09:45.924Z,30.93
2018-11-03T20:12:16.848Z,27.67
2018-11-03T20:14:47.753Z,30.67
2018-11-03T20:17:25.756Z,29.18
2018-11-03T20:19:55.696Z,29.20
2018-11-03T20:22:25.582Z,30.40
2018-11-03T20:24:55.504Z,31.12
2018-11-03T20:27:37.364Z,31.15
2018-11-03T20:30:12.928Z,29.50
2018-11-03T20:32:47.569Z,32.40
2018-11-03T20:35:29.897Z,32.40
2018-11-03T20:38:06.245Z,33.57
2018-11-03T20:40:36.140Z,31.03
2018-11-03T20:43:06.104Z,31.20
2018-11-03T20:45:40.032Z,33.78
2018-11-03T20:48:10.064Z,36.77
2018-11-03T20:50:40.903Z,33.13
2018-11-03T20:53:10.814Z,31.10
2018-11-03T20:55:40.720Z,31.77
2018-11-03T20:58:10.620Z,40.80
2018-11-03T21:00:40.792Z,51.60
2018-11-03T21:03:11.593Z,37.75
2018-11-03T21:05:42.524Z,36.45
2018-11-03T21:08:13.725Z,33.45
2018-11-03T21:10:43.468Z,34.40
2018-11-03T21:13:13.400Z,32.10
2018-11-03T21:15:43.328Z,33.28
2018-11-03T21:18:13.226Z,36.55
2018-11-03T21:20:43.147Z,36.00
2018-11-03T21:23:13.080Z,34.92
2018-11-03T21:25:42.944Z,36.30
2018-11-03T21:28:14.824Z,35.92
2018-11-03T21:30:44.648Z,37.95
2018-11-03T21:33:15.661Z,36.48
2018-11-03T21:35:49.448Z,37.78
2018-11-03T21:38:21.460Z,37.38
2018-11-03T21:40:52.279Z,37.65
2018-11-03T21:43:22.212Z,35.10
2018-11-03T21:45:52.022Z,37.05
2018-11-03T21:48:21.899Z,34.92
2018-11-03T21:50:52.738Z,35.27
2018-11-03T21:53:22.660Z,38.88
2018-11-03T21:55:53.575Z,39.18
2018-11-03T21:58:23.428Z,37.63
2018-11-03T22:00:53.328Z,42.93
2018-11-03T22:03:23.256Z,37.23
2018-11-03T22:05:55.062Z,37.55
2018-11-03T22:08:26.952Z,42.33
2018-11-03T22:10:58.823Z,40.35
2018-11-03T22:13:34.304Z,34.90
2018-11-03T22:16:04.530Z,41.45
2018-11-03T22:18:43.060Z,38.15
2018-11-03T22:21:20.540Z,40.03
2018-11-03T22:23:54.080Z,39.73
2018-11-03T22:26:24.984Z,44.33
2018-11-03T22:28:59.184Z,37.90
2018-11-03T22:31:29.461Z,41.10
2018-11-03T22:34:00.344Z,40.15
2018-11-03T22:36:31.292Z,43.80
2018-11-03T22:39:01.196Z,41.40
2018-11-03T22:41:31.220Z,39.70
2018-11-03T22:44:01.101Z,44.27
2018-11-03T22:46:32.558Z,37.88
2018-11-03T22:49:03.472Z,42.88
2018-11-03T22:51:34.449Z,40.40
2018-11-03T22:54:04.220Z,42.90
2018-11-03T22:56:34.176Z,40.45
2018-11-03T22:59:08.275Z,44.75
2018-11-03T23:01:42.198Z,40.10
2018-11-03T23:04:14.024Z,44.23
2018-11-03T23:06:49.382Z,40.60
2018-11-03T23:09:20.281Z,38.42
2018-11-03T23:11:51.116Z,38.35
2018-11-03T23:14:21.972Z,35.55
2018-11-03T23:16:51.896Z,37.10
2018-11-03T23:19:23.758Z,37.45
2018-11-03T23:21:55.674Z,39.08
2018-11-03T23:24:31.376Z,36.63
2018-11-03T23:27:06.100Z,44.33
2018-11-03T23:29:37.103Z,40.65
2018-11-03T23:32:06.988Z,36.68
2018-11-03T23:34:36.884Z,31.40
2018-11-03T23:37:09.764Z,36.87
2018-11-03T23:39:39.552Z,32.03
2018-11-03T23:42:09.428Z,33.78
2018-11-03T23:44:41.292Z,34.07
2018-11-03T23:47:11.124Z,29.70
2018-11-03T23:49:41.348Z,29.12
2018-11-03T23:52:13.172Z,33.53
2018-11-03T23:54:44.025Z,36.13
2018-11-03T23:57:16.996Z,36.05
2018-11-03T23:59:47.881Z,36.80
